sensor_id;sensor_type;location;lat;lon;timestamp;P1;durP1;ratioP1;P2;durP2;ratioP2
10281;SDS011;5186;59.472;18.048;2023-12-07T00:00:34;10.33;;;5.17;;
10281;SDS011;5186;59.472;18.048;2023-12-07T00:02:59;11.47;;;5.20;;
10281;SDS011;5186;59.472;18.048;2023-12-07T00:05:25;10.53;;;5.00;;
10281;SDS011;5186;59.472;18.048;2023-12-07T00:07:51;11.33;;;5.13;;
10281;SDS011;5186;59.472;18.048;2023-12-07T00:10:16;8.63;;;4.40;;
10281;SDS011;5186;59.472;18.048;2023-12-07T00:12:42;8.53;;;4.63;;
10281;SDS011;5186;59.472;18.048;2023-12-07T00:15:07;10.87;;;4.80;;
10281;SDS011;5186;59.472;18.048;2023-12-07T00:17:33;7.43;;;4.40;;
10281;SDS011;5186;59.472;18.048;2023-12-07T00:19:59;9.80;;;4.67;;
10281;SDS011;5186;59.472;18.048;2023-12-07T00:22:24;9.80;;;4.70;;
10281;SDS011;5186;59.472;18.048;2023-12-07T00:24:51;9.83;;;4.17;;
10281;SDS011;5186;59.472;18.048;2023-12-07T00:27:17;10.10;;;4.20;;
10281;SDS011;5186;59.472;18.048;2023-12-07T00:29:43;10.87;;;4.97;;
10281;SDS011;5186;59.472;18.048;2023-12-07T00:32:08;11.27;;;4.70;;
10281;SDS011;5186;59.472;18.048;2023-12-07T00:34:34;11.70;;;4.50;;
10281;SDS011;5186;59.472;18.048;2023-12-07T00:36:59;9.40;;;4.77;;
10281;SDS011;5186;59.472;18.048;2023-12-07T00:39:25;7.57;;;4.40;;
10281;SDS011;5186;59.472;18.048;2023-12-07T00:41:51;8.93;;;4.50;;
10281;SDS011;5186;59.472;18.048;2023-12-07T00:44:17;7.87;;;4.37;;
10281;SDS011;5186;59.472;18.048;2023-12-07T00:46:43;6.13;;;3.70;;
10281;SDS011;5186;59.472;18.048;2023-12-07T00:49:08;7.90;;;4.20;;
10281;SDS011;5186;59.472;18.048;2023-12-07T00:51:34;7.07;;;3.77;;
10281;SDS011;5186;59.472;18.048;2023-12-07T00:53:59;5.80;;;3.03;;
10281;SDS011;5186;59.472;18.048;2023-12-07T00:56:25;8.43;;;3.97;;
10281;SDS011;5186;59.472;18.048;2023-12-07T00:58:50;5.63;;;3.53;;
10281;SDS011;5186;59.472;18.048;2023-12-07T01:01:16;8.40;;;4.20;;
10281;SDS011;5186;59.472;18.048;2023-12-07T01:03:42;7.33;;;4.00;;
10281;SDS011;5186;59.472;18.048;2023-12-07T01:06:07;6.83;;;3.67;;
10281;SDS011;5186;59.472;18.048;2023-12-07T01:08:34;6.47;;;3.80;;
10281;SDS011;5186;59.472;18.048;2023-12-07T01:11:00;6.90;;;3.73;;
10281;SDS011;5186;59.472;18.048;2023-12-07T01:13:26;11.97;;;4.50;;
10281;SDS011;5186;59.472;18.048;2023-12-07T01:15:51;7.13;;;3.90;;
10281;SDS011;5186;59.472;18.048;2023-12-07T01:18:17;8.30;;;4.03;;
10281;SDS011;5186;59.472;18.048;2023-12-07T01:20:42;6.43;;;3.60;;
10281;SDS011;5186;59.472;18.048;2023-12-07T01:23:08;7.97;;;3.77;;
10281;SDS011;5186;59.472;18.048;2023-12-07T01:25:33;6.70;;;3.50;;
10281;SDS011;5186;59.472;18.048;2023-12-07T01:27:59;8.97;;;3.93;;
10281;SDS011;5186;59.472;18.048;2023-12-07T01:30:25;7.73;;;3.83;;
10281;SDS011;5186;59.472;18.048;2023-12-07T01:32:50;7.80;;;3.70;;
10281;SDS011;5186;59.472;18.048;2023-12-07T01:35:16;7.57;;;3.43;;
10281;SDS011;5186;59.472;18.048;2023-12-07T01:37:41;6.13;;;3.30;;
10281;SDS011;5186;59.472;18.048;2023-12-07T01:40:07;8.27;;;3.57;;
10281;SDS011;5186;59.472;18.048;2023-12-07T01:42:35;5.43;;;2.67;;
10281;SDS011;5186;59.472;18.048;2023-12-07T01:45:05;7.07;;;3.57;;
10281;SDS011;5186;59.472;18.048;2023-12-07T01:47:31;8.80;;;3.10;;
10281;SDS011;5186;59.472;18.048;2023-12-07T01:49:58;4.37;;;2.70;;
10281;SDS011;5186;59.472;18.048;2023-12-07T01:52:25;5.10;;;3.20;;
10281;SDS011;5186;59.472;18.048;2023-12-07T01:54:53;6.40;;;3.07;;
10281;SDS011;5186;59.472;18.048;2023-12-07T01:57:19;6.87;;;3.43;;
10281;SDS011;5186;59.472;18.048;2023-12-07T01:59:45;5.83;;;3.07;;
10281;SDS011;5186;59.472;18.048;2023-12-07T02:02:11;5.03;;;3.23;;
10281;SDS011;5186;59.472;18.048;2023-12-07T02:04:37;5.77;;;3.27;;
10281;SDS011;5186;59.472;18.048;2023-12-07T02:07:03;7.97;;;4.00;;
10281;SDS011;5186;59.472;18.048;2023-12-07T02:09:29;6.33;;;3.33;;
10281;SDS011;5186;59.472;18.048;2023-12-07T02:11:55;8.17;;;3.80;;
10281;SDS011;5186;59.472;18.048;2023-12-07T02:14:21;6.13;;;3.23;;
10281;SDS011;5186;59.472;18.048;2023-12-07T02:16:48;7.90;;;3.13;;
10281;SDS011;5186;59.472;18.048;2023-12-07T02:22:06;5.83;;;2.73;;
10281;SDS011;5186;59.472;18.048;2023-12-07T02:24:37;7.00;;;3.40;;
10281;SDS011;5186;59.472;18.048;2023-12-07T02:27:08;4.47;;;3.00;;
10281;SDS011;5186;59.472;18.048;2023-12-07T02:29:34;6.23;;;3.00;;
10281;SDS011;5186;59.472;18.048;2023-12-07T02:31:59;5.57;;;2.70;;
10281;SDS011;5186;59.472;18.048;2023-12-07T02:34:25;7.17;;;3.27;;
10281;SDS011;5186;59.472;18.048;2023-12-07T02:36:50;6.37;;;3.17;;
10281;SDS011;5186;59.472;18.048;2023-12-07T02:39:20;5.13;;;2.73;;
10281;SDS011;5186;59.472;18.048;2023-12-07T02:41:46;6.10;;;3.10;;
10281;SDS011;5186;59.472;18.048;2023-12-07T02:44:14;6.00;;;2.50;;
10281;SDS011;5186;59.472;18.048;2023-12-07T02:46:40;6.27;;;2.90;;
10281;SDS011;5186;59.472;18.048;2023-12-07T02:49:05;7.13;;;3.33;;
10281;SDS011;5186;59.472;18.048;2023-12-07T02:51:31;5.67;;;3.07;;
10281;SDS011;5186;59.472;18.048;2023-12-07T02:53:57;6.23;;;2.97;;
10281;SDS011;5186;59.472;18.048;2023-12-07T02:56:22;5.07;;;2.97;;
10281;SDS011;5186;59.472;18.048;2023-12-07T02:58:48;4.67;;;2.73;;
10281;SDS011;5186;59.472;18.048;2023-12-07T03:01:13;4.53;;;2.73;;
10281;SDS011;5186;59.472;18.048;2023-12-07T03:03:39;4.43;;;2.83;;
10281;SDS011;5186;59.472;18.048;2023-12-07T03:06:07;5.67;;;2.77;;
10281;SDS011;5186;59.472;18.048;2023-12-07T03:08:32;7.00;;;2.93;;
10281;SDS011;5186;59.472;18.048;2023-12-07T03:10:58;5.00;;;2.73;;
10281;SDS011;5186;59.472;18.048;2023-12-07T03:13:23;4.80;;;2.57;;
10281;SDS011;5186;59.472;18.048;2023-12-07T03:15:49;5.30;;;3.10;;
10281;SDS011;5186;59.472;18.048;2023-12-07T03:18:14;5.00;;;2.80;;
10281;SDS011;5186;59.472;18.048;2023-12-07T03:20:40;4.10;;;2.43;;
10281;SDS011;5186;59.472;18.048;2023-12-07T03:23:06;6.10;;;3.33;;
10281;SDS011;5186;59.472;18.048;2023-12-07T03:25:32;4.23;;;2.70;;
10281;SDS011;5186;59.472;18.048;2023-12-07T03:27:57;5.67;;;2.77;;
10281;SDS011;5186;59.472;18.048;2023-12-07T03:30:23;4.77;;;2.37;;
10281;SDS011;5186;59.472;18.048;2023-12-07T03:32:48;4.67;;;2.83;;
10281;SDS011;5186;59.472;18.048;2023-12-07T03:35:14;4.17;;;2.30;;
10281;SDS011;5186;59.472;18.048;2023-12-07T03:37:39;4.73;;;2.60;;
10281;SDS011;5186;59.472;18.048;2023-12-07T03:40:05;5.37;;;2.90;;
10281;SDS011;5186;59.472;18.048;2023-12-07T03:42:31;3.23;;;2.30;;
10281;SDS011;5186;59.472;18.048;2023-12-07T03:44:57;4.10;;;2.30;;
10281;SDS011;5186;59.472;18.048;2023-12-07T03:47:22;5.37;;;3.10;;
10281;SDS011;5186;59.472;18.048;2023-12-07T03:49:48;5.20;;;2.50;;
10281;SDS011;5186;59.472;18.048;2023-12-07T03:52:13;6.07;;;2.63;;
10281;SDS011;5186;59.472;18.048;2023-12-07T03:54:39;5.67;;;2.90;;
10281;SDS011;5186;59.472;18.048;2023-12-07T03:57:04;4.23;;;2.40;;
10281;SDS011;5186;59.472;18.048;2023-12-07T03:59:30;4.90;;;2.17;;
10281;SDS011;5186;59.472;18.048;2023-12-07T04:01:55;4.97;;;2.40;;
10281;SDS011;5186;59.472;18.048;2023-12-07T04:04:21;5.80;;;2.60;;
10281;SDS011;5186;59.472;18.048;2023-12-07T04:06:47;4.67;;;2.50;;
10281;SDS011;5186;59.472;18.048;2023-12-07T04:09:13;4.40;;;2.60;;
10281;SDS011;5186;59.472;18.048;2023-12-07T04:11:38;4.57;;;2.60;;
10281;SDS011;5186;59.472;18.048;2023-12-07T04:14:04;3.10;;;2.00;;
10281;SDS011;5186;59.472;18.048;2023-12-07T04:16:30;5.77;;;2.83;;
10281;SDS011;5186;59.472;18.048;2023-12-07T04:18:55;3.30;;;2.17;;
10281;SDS011;5186;59.472;18.048;2023-12-07T04:21:21;4.13;;;2.23;;
10281;SDS011;5186;59.472;18.048;2023-12-07T04:23:47;4.57;;;2.73;;
10281;SDS011;5186;59.472;18.048;2023-12-07T04:26:12;3.60;;;2.10;;
10281;SDS011;5186;59.472;18.048;2023-12-07T04:28:39;4.67;;;2.20;;
10281;SDS011;5186;59.472;18.048;2023-12-07T04:31:05;3.77;;;2.37;;
10281;SDS011;5186;59.472;18.048;2023-12-07T04:33:30;4.03;;;2.40;;
10281;SDS011;5186;59.472;18.048;2023-12-07T04:35:56;3.63;;;2.00;;
10281;SDS011;5186;59.472;18.048;2023-12-07T04:38:21;6.00;;;2.60;;
10281;SDS011;5186;59.472;18.048;2023-12-07T04:40:47;3.93;;;2.30;;
10281;SDS011;5186;59.472;18.048;2023-12-07T04:43:13;4.70;;;2.43;;
10281;SDS011;5186;59.472;18.048;2023-12-07T04:45:38;4.70;;;2.50;;
10281;SDS011;5186;59.472;18.048;2023-12-07T04:48:04;4.73;;;2.33;;
10281;SDS011;5186;59.472;18.048;2023-12-07T04:50:30;3.97;;;2.07;;
10281;SDS011;5186;59.472;18.048;2023-12-07T04:52:55;5.20;;;2.33;;
10281;SDS011;5186;59.472;18.048;2023-12-07T04:55:22;3.50;;;1.90;;
10281;SDS011;5186;59.472;18.048;2023-12-07T04:57:47;3.77;;;2.23;;
10281;SDS011;5186;59.472;18.048;2023-12-07T05:00:13;3.20;;;2.00;;
10281;SDS011;5186;59.472;18.048;2023-12-07T05:02:39;4.53;;;2.47;;
10281;SDS011;5186;59.472;18.048;2023-12-07T05:05:04;4.43;;;2.40;;
10281;SDS011;5186;59.472;18.048;2023-12-07T05:07:30;5.00;;;2.50;;
10281;SDS011;5186;59.472;18.048;2023-12-07T05:09:56;4.37;;;2.53;;
10281;SDS011;5186;59.472;18.048;2023-12-07T05:12:21;4.30;;;2.40;;
10281;SDS011;5186;59.472;18.048;2023-12-07T05:14:47;4.47;;;2.40;;
10281;SDS011;5186;59.472;18.048;2023-12-07T05:17:12;4.30;;;2.33;;
10281;SDS011;5186;59.472;18.048;2023-12-07T05:19:39;4.03;;;2.57;;
10281;SDS011;5186;59.472;18.048;2023-12-07T05:22:04;3.87;;;2.07;;
10281;SDS011;5186;59.472;18.048;2023-12-07T05:24:30;6.20;;;3.30;;
10281;SDS011;5186;59.472;18.048;2023-12-07T05:26:59;4.17;;;2.50;;
10281;SDS011;5186;59.472;18.048;2023-12-07T05:29:25;5.00;;;2.50;;
10281;SDS011;5186;59.472;18.048;2023-12-07T05:31:50;4.30;;;2.33;;
10281;SDS011;5186;59.472;18.048;2023-12-07T05:34:16;5.47;;;2.30;;
10281;SDS011;5186;59.472;18.048;2023-12-07T05:36:42;6.17;;;2.93;;
10281;SDS011;5186;59.472;18.048;2023-12-07T05:39:08;6.17;;;2.70;;
10281;SDS011;5186;59.472;18.048;2023-12-07T05:41:34;4.40;;;2.60;;
10281;SDS011;5186;59.472;18.048;2023-12-07T05:43:59;4.10;;;2.40;;
10281;SDS011;5186;59.472;18.048;2023-12-07T05:46:25;6.10;;;2.53;;
10281;SDS011;5186;59.472;18.048;2023-12-07T05:48:51;5.20;;;3.07;;
10281;SDS011;5186;59.472;18.048;2023-12-07T05:51:17;4.70;;;3.07;;
10281;SDS011;5186;59.472;18.048;2023-12-07T05:53:43;4.57;;;2.10;;
10281;SDS011;5186;59.472;18.048;2023-12-07T05:56:09;5.07;;;3.13;;
10281;SDS011;5186;59.472;18.048;2023-12-07T05:58:35;4.50;;;2.73;;
10281;SDS011;5186;59.472;18.048;2023-12-07T06:01:01;5.20;;;3.13;;
10281;SDS011;5186;59.472;18.048;2023-12-07T06:03:27;4.97;;;3.00;;
10281;SDS011;5186;59.472;18.048;2023-12-07T06:05:53;3.57;;;2.57;;
10281;SDS011;5186;59.472;18.048;2023-12-07T06:08:19;6.20;;;2.80;;
10281;SDS011;5186;59.472;18.048;2023-12-07T06:10:45;7.77;;;3.43;;
10281;SDS011;5186;59.472;18.048;2023-12-07T06:13:11;6.07;;;3.03;;
10281;SDS011;5186;59.472;18.048;2023-12-07T06:15:37;5.07;;;2.83;;
10281;SDS011;5186;59.472;18.048;2023-12-07T06:18:02;4.60;;;2.80;;
10281;SDS011;5186;59.472;18.048;2023-12-07T06:20:28;5.33;;;2.93;;
10281;SDS011;5186;59.472;18.048;2023-12-07T06:22:54;6.47;;;3.10;;
10281;SDS011;5186;59.472;18.048;2023-12-07T06:25:19;5.83;;;3.20;;
10281;SDS011;5186;59.472;18.048;2023-12-07T06:27:45;5.90;;;3.37;;
10281;SDS011;5186;59.472;18.048;2023-12-07T06:30:11;6.00;;;3.23;;
10281;SDS011;5186;59.472;18.048;2023-12-07T06:32:36;5.40;;;3.00;;
10281;SDS011;5186;59.472;18.048;2023-12-07T06:35:02;6.60;;;3.40;;
10281;SDS011;5186;59.472;18.048;2023-12-07T06:37:31;5.80;;;2.90;;
10281;SDS011;5186;59.472;18.048;2023-12-07T06:39:56;6.10;;;3.40;;
10281;SDS011;5186;59.472;18.048;2023-12-07T06:42:23;5.57;;;3.30;;
10281;SDS011;5186;59.472;18.048;2023-12-07T06:44:49;6.67;;;3.43;;
10281;SDS011;5186;59.472;18.048;2023-12-07T06:47:15;4.50;;;3.20;;
10281;SDS011;5186;59.472;18.048;2023-12-07T06:49:41;5.83;;;3.10;;
10281;SDS011;5186;59.472;18.048;2023-12-07T06:52:06;6.53;;;3.70;;
10281;SDS011;5186;59.472;18.048;2023-12-07T06:54:32;5.90;;;3.40;;
10281;SDS011;5186;59.472;18.048;2023-12-07T06:56:59;5.87;;;3.60;;
10281;SDS011;5186;59.472;18.048;2023-12-07T06:59:24;7.53;;;3.33;;
10281;SDS011;5186;59.472;18.048;2023-12-07T07:01:50;5.97;;;3.43;;
10281;SDS011;5186;59.472;18.048;2023-12-07T07:04:15;7.20;;;3.40;;
10281;SDS011;5186;59.472;18.048;2023-12-07T07:06:41;5.93;;;3.60;;
10281;SDS011;5186;59.472;18.048;2023-12-07T07:09:07;7.33;;;3.67;;
10281;SDS011;5186;59.472;18.048;2023-12-07T07:11:32;7.40;;;3.80;;
10281;SDS011;5186;59.472;18.048;2023-12-07T07:13:59;6.57;;;3.53;;
10281;SDS011;5186;59.472;18.048;2023-12-07T07:16:25;6.43;;;3.30;;
10281;SDS011;5186;59.472;18.048;2023-12-07T07:18:50;6.33;;;3.60;;
10281;SDS011;5186;59.472;18.048;2023-12-07T07:21:16;7.03;;;4.03;;
10281;SDS011;5186;59.472;18.048;2023-12-07T07:23:41;7.10;;;3.60;;
10281;SDS011;5186;59.472;18.048;2023-12-07T07:26:07;6.40;;;3.80;;
10281;SDS011;5186;59.472;18.048;2023-12-07T07:28:33;6.53;;;3.63;;
10281;SDS011;5186;59.472;18.048;2023-12-07T07:30:59;6.73;;;3.57;;
10281;SDS011;5186;59.472;18.048;2023-12-07T07:33:25;5.97;;;3.70;;
10281;SDS011;5186;59.472;18.048;2023-12-07T07:35:50;8.03;;;4.00;;
10281;SDS011;5186;59.472;18.048;2023-12-07T07:38:16;6.47;;;3.97;;
10281;SDS011;5186;59.472;18.048;2023-12-07T07:40:41;6.53;;;4.03;;
10281;SDS011;5186;59.472;18.048;2023-12-07T07:43:07;7.40;;;3.63;;
10281;SDS011;5186;59.472;18.048;2023-12-07T07:45:33;8.30;;;4.03;;
10281;SDS011;5186;59.472;18.048;2023-12-07T07:47:58;7.20;;;4.00;;
10281;SDS011;5186;59.472;18.048;2023-12-07T07:50:24;7.93;;;3.77;;
10281;SDS011;5186;59.472;18.048;2023-12-07T07:52:49;7.57;;;3.87;;
10281;SDS011;5186;59.472;18.048;2023-12-07T07:55:15;6.77;;;4.07;;
10281;SDS011;5186;59.472;18.048;2023-12-07T07:57:40;6.23;;;3.83;;
10281;SDS011;5186;59.472;18.048;2023-12-07T08:00:06;9.40;;;4.30;;
10281;SDS011;5186;59.472;18.048;2023-12-07T08:02:33;7.10;;;4.37;;
10281;SDS011;5186;59.472;18.048;2023-12-07T08:05:01;6.90;;;3.90;;
10281;SDS011;5186;59.472;18.048;2023-12-07T08:07:27;9.13;;;4.20;;
10281;SDS011;5186;59.472;18.048;2023-12-07T08:09:52;7.77;;;4.23;;
10281;SDS011;5186;59.472;18.048;2023-12-07T08:12:18;7.73;;;4.60;;
10281;SDS011;5186;59.472;18.048;2023-12-07T08:14:43;8.23;;;4.77;;
10281;SDS011;5186;59.472;18.048;2023-12-07T08:17:11;8.50;;;4.47;;
10281;SDS011;5186;59.472;18.048;2023-12-07T08:19:36;6.40;;;3.80;;
10281;SDS011;5186;59.472;18.048;2023-12-07T08:22:03;8.03;;;4.33;;
10281;SDS011;5186;59.472;18.048;2023-12-07T08:24:28;9.43;;;4.70;;
10281;SDS011;5186;59.472;18.048;2023-12-07T08:26:54;6.33;;;3.87;;
10281;SDS011;5186;59.472;18.048;2023-12-07T08:29:19;5.90;;;3.97;;
10281;SDS011;5186;59.472;18.048;2023-12-07T08:31:45;7.70;;;3.83;;
10281;SDS011;5186;59.472;18.048;2023-12-07T08:34:12;8.70;;;4.70;;
10281;SDS011;5186;59.472;18.048;2023-12-07T08:36:38;9.50;;;4.77;;
10281;SDS011;5186;59.472;18.048;2023-12-07T08:39:03;6.17;;;3.57;;
10281;SDS011;5186;59.472;18.048;2023-12-07T08:41:29;7.17;;;4.07;;
10281;SDS011;5186;59.472;18.048;2023-12-07T08:43:54;7.93;;;4.13;;
10281;SDS011;5186;59.472;18.048;2023-12-07T08:46:20;11.27;;;4.87;;
10281;SDS011;5186;59.472;18.048;2023-12-07T08:48:45;8.53;;;3.90;;
10281;SDS011;5186;59.472;18.048;2023-12-07T08:51:11;7.37;;;4.37;;
10281;SDS011;5186;59.472;18.048;2023-12-07T08:53:37;7.27;;;4.13;;
10281;SDS011;5186;59.472;18.048;2023-12-07T08:56:03;8.47;;;4.53;;
10281;SDS011;5186;59.472;18.048;2023-12-07T08:58:30;7.10;;;4.17;;
10281;SDS011;5186;59.472;18.048;2023-12-07T09:00:55;12.27;;;4.80;;
10281;SDS011;5186;59.472;18.048;2023-12-07T09:03:21;7.70;;;4.47;;
10281;SDS011;5186;59.472;18.048;2023-12-07T09:05:52;9.13;;;4.70;;
10281;SDS011;5186;59.472;18.048;2023-12-07T09:08:18;7.53;;;4.13;;
10281;SDS011;5186;59.472;18.048;2023-12-07T09:10:43;11.13;;;4.70;;
10281;SDS011;5186;59.472;18.048;2023-12-07T09:13:09;6.80;;;4.37;;
10281;SDS011;5186;59.472;18.048;2023-12-07T09:15:34;10.07;;;5.20;;
10281;SDS011;5186;59.472;18.048;2023-12-07T09:18:02;9.30;;;4.40;;
10281;SDS011;5186;59.472;18.048;2023-12-07T09:20:28;10.93;;;4.83;;
10281;SDS011;5186;59.472;18.048;2023-12-07T09:22:53;9.60;;;4.73;;
10281;SDS011;5186;59.472;18.048;2023-12-07T09:25:22;8.57;;;4.97;;
10281;SDS011;5186;59.472;18.048;2023-12-07T09:27:47;7.97;;;4.30;;
10281;SDS011;5186;59.472;18.048;2023-12-07T09:30:13;8.13;;;4.40;;
10281;SDS011;5186;59.472;18.048;2023-12-07T09:32:39;9.63;;;5.10;;
10281;SDS011;5186;59.472;18.048;2023-12-07T09:35:05;8.97;;;4.63;;
10281;SDS011;5186;59.472;18.048;2023-12-07T09:37:32;9.00;;;4.97;;
10281;SDS011;5186;59.472;18.048;2023-12-07T09:39:59;9.40;;;4.80;;
10281;SDS011;5186;59.472;18.048;2023-12-07T09:42:25;10.53;;;5.17;;
10281;SDS011;5186;59.472;18.048;2023-12-07T09:44:51;8.23;;;4.70;;
10281;SDS011;5186;59.472;18.048;2023-12-07T09:47:17;8.70;;;4.97;;
10281;SDS011;5186;59.472;18.048;2023-12-07T09:49:43;9.20;;;5.33;;
10281;SDS011;5186;59.472;18.048;2023-12-07T09:52:10;9.30;;;4.97;;
10281;SDS011;5186;59.472;18.048;2023-12-07T09:54:39;11.27;;;5.13;;
10281;SDS011;5186;59.472;18.048;2023-12-07T09:57:06;10.03;;;5.33;;
10281;SDS011;5186;59.472;18.048;2023-12-07T09:59:34;10.53;;;5.10;;
10281;SDS011;5186;59.472;18.048;2023-12-07T10:02:01;10.73;;;5.90;;
10281;SDS011;5186;59.472;18.048;2023-12-07T10:04:26;8.93;;;5.03;;
10281;SDS011;5186;59.472;18.048;2023-12-07T10:06:52;9.97;;;5.27;;
10281;SDS011;5186;59.472;18.048;2023-12-07T10:09:19;9.10;;;4.97;;
10281;SDS011;5186;59.472;18.048;2023-12-07T10:11:46;9.67;;;5.20;;
10281;SDS011;5186;59.472;18.048;2023-12-07T10:14:12;8.20;;;5.00;;
10281;SDS011;5186;59.472;18.048;2023-12-07T10:16:38;10.50;;;4.97;;
10281;SDS011;5186;59.472;18.048;2023-12-07T10:19:18;9.20;;;5.03;;
10281;SDS011;5186;59.472;18.048;2023-12-07T10:21:46;9.60;;;5.60;;
10281;SDS011;5186;59.472;18.048;2023-12-07T10:24:12;12.33;;;6.10;;
10281;SDS011;5186;59.472;18.048;2023-12-07T10:26:39;10.70;;;7.07;;
10281;SDS011;5186;59.472;18.048;2023-12-07T10:29:05;14.50;;;7.50;;
10281;SDS011;5186;59.472;18.048;2023-12-07T10:31:31;11.37;;;6.20;;
10281;SDS011;5186;59.472;18.048;2023-12-07T10:33:58;10.53;;;6.17;;
10281;SDS011;5186;59.472;18.048;2023-12-07T10:36:24;9.13;;;5.30;;
10281;SDS011;5186;59.472;18.048;2023-12-07T10:38:50;8.87;;;5.07;;
10281;SDS011;5186;59.472;18.048;2023-12-07T10:41:16;10.00;;;4.90;;
10281;SDS011;5186;59.472;18.048;2023-12-07T10:43:49;12.23;;;5.40;;
10281;SDS011;5186;59.472;18.048;2023-12-07T10:46:18;10.03;;;5.13;;
10281;SDS011;5186;59.472;18.048;2023-12-07T10:48:47;8.70;;;4.87;;
10281;SDS011;5186;59.472;18.048;2023-12-07T10:51:38;9.90;;;5.60;;
10281;SDS011;5186;59.472;18.048;2023-12-07T10:54:03;11.20;;;5.87;;
10281;SDS011;5186;59.472;18.048;2023-12-07T10:56:39;10.37;;;5.53;;
10281;SDS011;5186;59.472;18.048;2023-12-07T10:59:09;8.90;;;5.10;;
10281;SDS011;5186;59.472;18.048;2023-12-07T11:01:39;11.27;;;5.47;;
10281;SDS011;5186;59.472;18.048;2023-12-07T11:04:05;9.87;;;5.83;;
10281;SDS011;5186;59.472;18.048;2023-12-07T11:06:32;12.63;;;6.40;;
10281;SDS011;5186;59.472;18.048;2023-12-07T11:09:00;10.83;;;5.67;;
10281;SDS011;5186;59.472;18.048;2023-12-07T11:11:31;11.90;;;6.10;;
10281;SDS011;5186;59.472;18.048;2023-12-07T11:14:14;10.47;;;5.23;;
10281;SDS011;5186;59.472;18.048;2023-12-07T11:16:42;11.13;;;6.00;;
10281;SDS011;5186;59.472;18.048;2023-12-07T11:22:02;9.37;;;4.93;;
10281;SDS011;5186;59.472;18.048;2023-12-07T11:24:29;8.90;;;5.10;;
10281;SDS011;5186;59.472;18.048;2023-12-07T11:26:55;9.73;;;5.47;;
10281;SDS011;5186;59.472;18.048;2023-12-07T11:29:21;10.33;;;5.30;;
10281;SDS011;5186;59.472;18.048;2023-12-07T11:31:49;10.00;;;5.30;;
10281;SDS011;5186;59.472;18.048;2023-12-07T11:34:35;9.10;;;5.20;;
10281;SDS011;5186;59.472;18.048;2023-12-07T11:37:05;10.37;;;5.50;;
10281;SDS011;5186;59.472;18.048;2023-12-07T11:39:35;11.13;;;5.67;;
10281;SDS011;5186;59.472;18.048;2023-12-07T11:42:17;10.23;;;5.37;;
10281;SDS011;5186;59.472;18.048;2023-12-07T11:44:47;9.57;;;5.73;;
10281;SDS011;5186;59.472;18.048;2023-12-07T11:47:18;11.80;;;5.67;;
10281;SDS011;5186;59.472;18.048;2023-12-07T11:49:45;8.67;;;5.20;;
10281;SDS011;5186;59.472;18.048;2023-12-07T11:52:19;11.37;;;5.60;;
10281;SDS011;5186;59.472;18.048;2023-12-07T11:54:45;11.30;;;5.97;;
10281;SDS011;5186;59.472;18.048;2023-12-07T11:57:11;12.27;;;5.93;;
10281;SDS011;5186;59.472;18.048;2023-12-07T11:59:37;12.60;;;6.10;;
10281;SDS011;5186;59.472;18.048;2023-12-07T12:02:03;10.23;;;6.00;;
10281;SDS011;5186;59.472;18.048;2023-12-07T12:04:29;11.30;;;6.10;;
10281;SDS011;5186;59.472;18.048;2023-12-07T12:06:54;11.33;;;6.00;;
10281;SDS011;5186;59.472;18.048;2023-12-07T12:09:20;11.67;;;6.20;;
10281;SDS011;5186;59.472;18.048;2023-12-07T12:11:46;14.53;;;7.23;;
10281;SDS011;5186;59.472;18.048;2023-12-07T12:14:15;20.60;;;9.10;;
10281;SDS011;5186;59.472;18.048;2023-12-07T12:16:47;14.57;;;7.73;;
10281;SDS011;5186;59.472;18.048;2023-12-07T12:19:13;13.60;;;7.80;;
10281;SDS011;5186;59.472;18.048;2023-12-07T12:21:41;14.73;;;8.00;;
10281;SDS011;5186;59.472;18.048;2023-12-07T12:24:08;12.83;;;7.63;;
10281;SDS011;5186;59.472;18.048;2023-12-07T12:26:34;13.53;;;7.87;;
10281;SDS011;5186;59.472;18.048;2023-12-07T12:29:02;10.10;;;5.80;;
10281;SDS011;5186;59.472;18.048;2023-12-07T12:31:28;11.27;;;6.50;;
10281;SDS011;5186;59.472;18.048;2023-12-07T12:33:54;11.33;;;6.30;;
10281;SDS011;5186;59.472;18.048;2023-12-07T12:36:20;12.50;;;7.07;;
10281;SDS011;5186;59.472;18.048;2023-12-07T12:38:48;11.47;;;6.10;;
10281;SDS011;5186;59.472;18.048;2023-12-07T12:41:18;12.13;;;6.70;;
10281;SDS011;5186;59.472;18.048;2023-12-07T12:43:44;13.43;;;6.50;;
10281;SDS011;5186;59.472;18.048;2023-12-07T12:46:10;16.27;;;7.33;;
10281;SDS011;5186;59.472;18.048;2023-12-07T12:48:36;16.53;;;7.67;;
10281;SDS011;5186;59.472;18.048;2023-12-07T12:51:08;12.77;;;7.23;;
10281;SDS011;5186;59.472;18.048;2023-12-07T12:53:44;13.87;;;7.43;;
10281;SDS011;5186;59.472;18.048;2023-12-07T12:56:14;14.20;;;8.40;;
10281;SDS011;5186;59.472;18.048;2023-12-07T12:58:40;13.27;;;7.70;;
10281;SDS011;5186;59.472;18.048;2023-12-07T13:01:05;14.33;;;7.63;;
10281;SDS011;5186;59.472;18.048;2023-12-07T13:03:32;14.40;;;7.83;;
10281;SDS011;5186;59.472;18.048;2023-12-07T13:05:57;15.07;;;8.70;;
10281;SDS011;5186;59.472;18.048;2023-12-07T13:08:23;15.37;;;8.30;;
10281;SDS011;5186;59.472;18.048;2023-12-07T13:10:49;18.60;;;8.07;;
10281;SDS011;5186;59.472;18.048;2023-12-07T13:13:15;13.63;;;7.10;;
10281;SDS011;5186;59.472;18.048;2023-12-07T13:15:41;14.03;;;6.97;;
10281;SDS011;5186;59.472;18.048;2023-12-07T13:18:06;13.30;;;7.43;;
10281;SDS011;5186;59.472;18.048;2023-12-07T13:20:33;13.57;;;7.53;;
10281;SDS011;5186;59.472;18.048;2023-12-07T13:23:00;16.53;;;7.27;;
10281;SDS011;5186;59.472;18.048;2023-12-07T13:25:25;13.20;;;7.33;;
10281;SDS011;5186;59.472;18.048;2023-12-07T13:27:51;13.80;;;7.33;;
10281;SDS011;5186;59.472;18.048;2023-12-07T13:30:17;15.70;;;7.07;;
10281;SDS011;5186;59.472;18.048;2023-12-07T13:32:42;11.63;;;6.27;;
10281;SDS011;5186;59.472;18.048;2023-12-07T13:35:08;18.77;;;6.63;;
10281;SDS011;5186;59.472;18.048;2023-12-07T13:37:34;13.30;;;6.17;;
10281;SDS011;5186;59.472;18.048;2023-12-07T13:39:59;11.43;;;6.77;;
10281;SDS011;5186;59.472;18.048;2023-12-07T13:42:28;11.63;;;6.03;;
10281;SDS011;5186;59.472;18.048;2023-12-07T13:44:55;10.43;;;6.50;;
10281;SDS011;5186;59.472;18.048;2023-12-07T13:47:22;14.57;;;7.60;;
10281;SDS011;5186;59.472;18.048;2023-12-07T13:49:56;14.37;;;6.77;;
10281;SDS011;5186;59.472;18.048;2023-12-07T13:52:22;13.87;;;7.20;;
10281;SDS011;5186;59.472;18.048;2023-12-07T13:54:48;11.83;;;6.73;;
10281;SDS011;5186;59.472;18.048;2023-12-07T13:57:14;12.67;;;7.00;;
10281;SDS011;5186;59.472;18.048;2023-12-07T13:59:40;11.87;;;7.20;;
10281;SDS011;5186;59.472;18.048;2023-12-07T14:02:06;12.97;;;7.17;;
10281;SDS011;5186;59.472;18.048;2023-12-07T14:04:32;12.93;;;6.80;;
10281;SDS011;5186;59.472;18.048;2023-12-07T14:07:11;11.17;;;6.37;;
10281;SDS011;5186;59.472;18.048;2023-12-07T14:09:42;12.20;;;6.93;;
10281;SDS011;5186;59.472;18.048;2023-12-07T14:12:09;11.50;;;7.00;;
10281;SDS011;5186;59.472;18.048;2023-12-07T14:14:39;12.93;;;6.70;;
10281;SDS011;5186;59.472;18.048;2023-12-07T14:17:05;11.87;;;6.77;;
10281;SDS011;5186;59.472;18.048;2023-12-07T14:19:31;10.47;;;6.30;;
10281;SDS011;5186;59.472;18.048;2023-12-07T14:21:57;11.33;;;7.07;;
10281;SDS011;5186;59.472;18.048;2023-12-07T14:24:23;14.03;;;6.97;;
10281;SDS011;5186;59.472;18.048;2023-12-07T14:26:49;10.90;;;6.60;;
10281;SDS011;5186;59.472;18.048;2023-12-07T14:29:15;17.10;;;8.40;;
10281;SDS011;5186;59.472;18.048;2023-12-07T14:31:43;12.97;;;7.00;;
10281;SDS011;5186;59.472;18.048;2023-12-07T14:34:10;14.20;;;7.50;;
10281;SDS011;5186;59.472;18.048;2023-12-07T14:36:35;12.27;;;6.77;;
10281;SDS011;5186;59.472;18.048;2023-12-07T14:39:03;12.27;;;6.63;;
10281;SDS011;5186;59.472;18.048;2023-12-07T14:41:31;11.40;;;6.47;;
10281;SDS011;5186;59.472;18.048;2023-12-07T14:43:57;11.83;;;7.03;;